sensor_id;sensor_type;location;lat;lon;timestamp;P1;durP1;ratioP1;P2;durP2;ratioP2
16387;SDS011;8303;53.446;9.988;2023-04-24T04:47:45;37.87;;;35.77;;
16387;SDS011;8303;53.446;9.988;2023-04-24T04:50:13;32.97;;;31.23;;
16387;SDS011;8303;53.446;9.988;2023-04-24T04:52:41;35.07;;;33.17;;
16387;SDS011;8303;53.446;9.988;2023-04-24T04:55:14;33.73;;;31.90;;
16387;SDS011;8303;53.446;9.988;2023-04-24T04:57:42;33.87;;;32.07;;
16387;SDS011;8303;53.446;9.988;2023-04-24T05:00:09;35.50;;;33.50;;
16387;SDS011;8303;53.446;9.988;2023-04-24T05:02:37;33.07;;;31.27;;
16387;SDS011;8303;53.446;9.988;2023-04-24T05:05:06;37.70;;;35.73;;
16387;SDS011;8303;53.446;9.988;2023-04-24T05:07:33;37.07;;;35.03;;
16387;SDS011;8303;53.446;9.988;2023-04-24T05:10:00;35.50;;;33.43;;
16387;SDS011;8303;53.446;9.988;2023-04-24T05:12:27;31.47;;;29.83;;
16387;SDS011;8303;53.446;9.988;2023-04-24T05:14:54;34.93;;;33.07;;
16387;SDS011;8303;53.446;9.988;2023-04-24T05:17:21;35.57;;;33.43;;
16387;SDS011;8303;53.446;9.988;2023-04-24T05:19:48;35.73;;;33.80;;
16387;SDS011;8303;53.446;9.988;2023-04-24T05:22:16;37.20;;;35.27;;
16387;SDS011;8303;53.446;9.988;2023-04-24T05:24:45;36.20;;;34.10;;
16387;SDS011;8303;53.446;9.988;2023-04-24T05:27:11;47.37;;;44.87;;
16387;SDS011;8303;53.446;9.988;2023-04-24T05:29:38;35.83;;;33.93;;
16387;SDS011;8303;53.446;9.988;2023-04-24T05:32:06;39.07;;;36.57;;
16387;SDS011;8303;53.446;9.988;2023-04-24T05:34:33;43.33;;;41.03;;
16387;SDS011;8303;53.446;9.988;2023-04-24T05:36:59;52.17;;;49.47;;
16387;SDS011;8303;53.446;9.988;2023-04-24T05:39:28;38.43;;;36.47;;
16387;SDS011;8303;53.446;9.988;2023-04-24T05:41:55;44.80;;;42.33;;
16387;SDS011;8303;53.446;9.988;2023-04-24T05:44:23;37.30;;;35.33;;
16387;SDS011;8303;53.446;9.988;2023-04-24T05:46:49;36.27;;;34.37;;
16387;SDS011;8303;53.446;9.988;2023-04-24T05:49:16;29.80;;;28.20;;
16387;SDS011;8303;53.446;9.988;2023-04-24T05:51:43;31.07;;;29.47;;
16387;SDS011;8303;53.446;9.988;2023-04-24T05:54:10;34.53;;;32.67;;
16387;SDS011;8303;53.446;9.988;2023-04-24T05:56:39;39.43;;;37.33;;
16387;SDS011;8303;53.446;9.988;2023-04-24T05:59:06;44.23;;;41.90;;
16387;SDS011;8303;53.446;9.988;2023-04-24T06:01:34;35.83;;;33.97;;
16387;SDS011;8303;53.446;9.988;2023-04-24T06:04:01;40.07;;;37.97;;
16387;SDS011;8303;53.446;9.988;2023-04-24T06:06:28;39.50;;;37.43;;
16387;SDS011;8303;53.446;9.988;2023-04-24T06:08:56;38.07;;;36.07;;
16387;SDS011;8303;53.446;9.988;2023-04-24T06:11:23;36.03;;;33.93;;
16387;SDS011;8303;53.446;9.988;2023-04-24T06:13:52;38.23;;;35.93;;
16387;SDS011;8303;53.446;9.988;2023-04-24T06:16:19;48.97;;;46.23;;
16387;SDS011;8303;53.446;9.988;2023-04-24T06:18:46;41.63;;;39.33;;
16387;SDS011;8303;53.446;9.988;2023-04-24T06:21:13;50.90;;;48.17;;
16387;SDS011;8303;53.446;9.988;2023-04-24T06:23:41;60.10;;;56.53;;
16387;SDS011;8303;53.446;9.988;2023-04-24T06:26:08;55.20;;;52.20;;
16387;SDS011;8303;53.446;9.988;2023-04-24T06:28:35;44.33;;;42.00;;
16387;SDS011;8303;53.446;9.988;2023-04-24T06:31:03;50.10;;;47.40;;
16387;SDS011;8303;53.446;9.988;2023-04-24T06:33:30;46.13;;;43.70;;
16387;SDS011;8303;53.446;9.988;2023-04-24T06:35:57;51.63;;;48.93;;
16387;SDS011;8303;53.446;9.988;2023-04-24T06:38:24;84.47;;;79.97;;
16387;SDS011;8303;53.446;9.988;2023-04-24T06:40:50;55.70;;;52.70;;
16387;SDS011;8303;53.446;9.988;2023-04-24T06:43:17;47.37;;;44.77;;
16387;SDS011;8303;53.446;9.988;2023-04-24T06:45:45;62.77;;;59.13;;
16387;SDS011;8303;53.446;9.988;2023-04-24T06:48:13;64.67;;;61.13;;
16387;SDS011;8303;53.446;9.988;2023-04-24T06:50:40;59.37;;;56.03;;
16387;SDS011;8303;53.446;9.988;2023-04-24T06:53:07;68.07;;;64.50;;
16387;SDS011;8303;53.446;9.988;2023-04-24T06:55:36;66.50;;;63.00;;
16387;SDS011;8303;53.446;9.988;2023-04-24T06:58:03;65.87;;;62.20;;
16387;SDS011;8303;53.446;9.988;2023-04-24T07:00:31;66.00;;;62.50;;
16387;SDS011;8303;53.446;9.988;2023-04-24T07:02:57;73.37;;;69.37;;
16387;SDS011;8303;53.446;9.988;2023-04-24T07:05:26;62.37;;;58.97;;
16387;SDS011;8303;53.446;9.988;2023-04-24T07:07:53;58.67;;;55.50;;
16387;SDS011;8303;53.446;9.988;2023-04-24T07:10:20;65.27;;;61.77;;
16387;SDS011;8303;53.446;9.988;2023-04-24T07:12:47;74.93;;;71.07;;
16387;SDS011;8303;53.446;9.988;2023-04-24T07:15:13;61.00;;;57.53;;
16387;SDS011;8303;53.446;9.988;2023-04-24T07:17:41;149.83;;;141.30;;
16387;SDS011;8303;53.446;9.988;2023-04-24T07:20:09;62.87;;;59.53;;
16387;SDS011;8303;53.446;9.988;2023-04-24T07:22:38;66.50;;;62.83;;
16387;SDS011;8303;53.446;9.988;2023-04-24T07:25:05;91.10;;;86.23;;
16387;SDS011;8303;53.446;9.988;2023-04-24T07:27:33;74.13;;;70.17;;
16387;SDS011;8303;53.446;9.988;2023-04-24T07:30:01;76.80;;;72.60;;
16387;SDS011;8303;53.446;9.988;2023-04-24T07:32:28;115.27;;;109.17;;
16387;SDS011;8303;53.446;9.988;2023-04-24T07:34:55;100.30;;;95.13;;
16387;SDS011;8303;53.446;9.988;2023-04-24T07:37:22;73.73;;;69.80;;
16387;SDS011;8303;53.446;9.988;2023-04-24T07:39:51;102.40;;;97.03;;
16387;SDS011;8303;53.446;9.988;2023-04-24T07:42:18;87.17;;;82.57;;
16387;SDS011;8303;53.446;9.988;2023-04-24T07:44:45;76.93;;;72.73;;
16387;SDS011;8303;53.446;9.988;2023-04-24T07:47:12;123.87;;;117.50;;
16387;SDS011;8303;53.446;9.988;2023-04-24T07:49:40;85.90;;;81.17;;
16387;SDS011;8303;53.446;9.988;2023-04-24T07:52:07;78.60;;;74.40;;
16387;SDS011;8303;53.446;9.988;2023-04-24T07:54:34;100.77;;;95.37;;
16387;SDS011;8303;53.446;9.988;2023-04-24T07:57:03;107.07;;;101.60;;
16387;SDS011;8303;53.446;9.988;2023-04-24T07:59:31;91.37;;;86.47;;
16387;SDS011;8303;53.446;9.988;2023-04-24T08:01:58;93.77;;;88.93;;
16387;SDS011;8303;53.446;9.988;2023-04-24T08:04:26;97.17;;;92.13;;
16387;SDS011;8303;53.446;9.988;2023-04-24T08:06:53;98.60;;;93.27;;
16387;SDS011;8303;53.446;9.988;2023-04-24T08:09:20;93.10;;;88.30;;
16387;SDS011;8303;53.446;9.988;2023-04-24T08:11:46;94.57;;;89.63;;
16387;SDS011;8303;53.446;9.988;2023-04-24T08:14:15;103.97;;;98.60;;
16387;SDS011;8303;53.446;9.988;2023-04-24T08:16:42;111.37;;;105.57;;
16387;SDS011;8303;53.446;9.988;2023-04-24T08:19:08;88.07;;;83.47;;
16387;SDS011;8303;53.446;9.988;2023-04-24T08:21:35;99.37;;;94.17;;
16387;SDS011;8303;53.446;9.988;2023-04-24T08:24:02;85.80;;;81.23;;
16387;SDS011;8303;53.446;9.988;2023-04-24T08:26:32;96.27;;;91.17;;
16387;SDS011;8303;53.446;9.988;2023-04-24T08:28:59;103.97;;;98.47;;
16387;SDS011;8303;53.446;9.988;2023-04-24T08:31:27;187.77;;;177.13;;
16387;SDS011;8303;53.446;9.988;2023-04-24T08:33:54;101.13;;;95.83;;
16387;SDS011;8303;53.446;9.988;2023-04-24T08:36:21;104.77;;;99.13;;
16387;SDS011;8303;53.446;9.988;2023-04-24T08:38:48;101.57;;;96.20;;
16387;SDS011;8303;53.446;9.988;2023-04-24T08:41:15;124.37;;;118.03;;
16387;SDS011;8303;53.446;9.988;2023-04-24T08:43:44;106.20;;;100.50;;
16387;SDS011;8303;53.446;9.988;2023-04-24T08:46:13;103.30;;;97.90;;
16387;SDS011;8303;53.446;9.988;2023-04-24T08:48:42;106.73;;;101.27;;
16387;SDS011;8303;53.446;9.988;2023-04-24T08:51:10;112.43;;;106.70;;
16387;SDS011;8303;53.446;9.988;2023-04-24T08:53:37;115.47;;;109.50;;
16387;SDS011;8303;53.446;9.988;2023-04-24T08:56:04;107.07;;;101.47;;
16387;SDS011;8303;53.446;9.988;2023-04-24T08:58:33;118.93;;;112.90;;
16387;SDS011;8303;53.446;9.988;2023-04-24T09:01:01;105.00;;;99.67;;
16387;SDS011;8303;53.446;9.988;2023-04-24T09:03:29;111.23;;;105.47;;
16387;SDS011;8303;53.446;9.988;2023-04-24T09:05:57;118.07;;;111.80;;
16387;SDS011;8303;53.446;9.988;2023-04-24T09:08:26;114.60;;;108.67;;
16387;SDS011;8303;53.446;9.988;2023-04-24T09:10:55;137.77;;;130.47;;
16387;SDS011;8303;53.446;9.988;2023-04-24T09:13:23;114.30;;;108.30;;
16387;SDS011;8303;53.446;9.988;2023-04-24T09:15:50;106.87;;;101.27;;
16387;SDS011;8303;53.446;9.988;2023-04-24T09:18:18;132.03;;;125.23;;
16387;SDS011;8303;53.446;9.988;2023-04-24T09:21:00;108.60;;;102.97;;
16387;SDS011;8303;53.446;9.988;2023-04-24T09:23:30;96.47;;;91.43;;
16387;SDS011;8303;53.446;9.988;2023-04-24T09:25:59;99.37;;;94.20;;
16387;SDS011;8303;53.446;9.988;2023-04-24T09:28:27;136.43;;;129.43;;
16387;SDS011;8303;53.446;9.988;2023-04-24T09:31:04;114.10;;;108.03;;
16387;SDS011;8303;53.446;9.988;2023-04-24T09:33:32;128.47;;;121.90;;
16387;SDS011;8303;53.446;9.988;2023-04-24T09:36:01;119.37;;;113.27;;
16387;SDS011;8303;53.446;9.988;2023-04-24T09:38:32;128.03;;;121.30;;
16387;SDS011;8303;53.446;9.988;2023-04-24T09:41:00;118.93;;;112.77;;
16387;SDS011;8303;53.446;9.988;2023-04-24T09:43:28;126.37;;;119.90;;
16387;SDS011;8303;53.446;9.988;2023-04-24T09:45:56;128.00;;;121.30;;
16387;SDS011;8303;53.446;9.988;2023-04-24T09:48:31;129.27;;;122.57;;
16387;SDS011;8303;53.446;9.988;2023-04-24T09:50:58;125.83;;;119.23;;
16387;SDS011;8303;53.446;9.988;2023-04-24T09:53:28;152.03;;;143.97;;
16387;SDS011;8303;53.446;9.988;2023-04-24T09:55:55;146.63;;;139.10;;
16387;SDS011;8303;53.446;9.988;2023-04-24T09:58:25;188.13;;;178.27;;
16387;SDS011;8303;53.446;9.988;2023-04-24T10:00:53;166.07;;;157.07;;
16387;SDS011;8303;53.446;9.988;2023-04-24T10:03:23;175.53;;;166.43;;
16387;SDS011;8303;53.446;9.988;2023-04-24T10:05:52;127.33;;;120.67;;
16387;SDS011;8303;53.446;9.988;2023-04-24T10:08:20;125.30;;;118.70;;
16387;SDS011;8303;53.446;9.988;2023-04-24T10:10:48;130.77;;;123.77;;
16387;SDS011;8303;53.446;9.988;2023-04-24T10:13:15;150.07;;;142.17;;
16387;SDS011;8303;53.446;9.988;2023-04-24T10:15:42;141.13;;;133.73;;
16387;SDS011;8303;53.446;9.988;2023-04-24T10:18:09;180.50;;;171.00;;
16387;SDS011;8303;53.446;9.988;2023-04-24T10:20:37;132.90;;;125.87;;
16387;SDS011;8303;53.446;9.988;2023-04-24T10:23:05;124.97;;;118.30;;
16387;SDS011;8303;53.446;9.988;2023-04-24T10:25:34;125.87;;;119.27;;
16387;SDS011;8303;53.446;9.988;2023-04-24T10:28:03;129.77;;;122.63;;
16387;SDS011;8303;53.446;9.988;2023-04-24T10:30:31;220.40;;;207.87;;
16387;SDS011;8303;53.446;9.988;2023-04-24T10:33:00;120.90;;;114.43;;
16387;SDS011;8303;53.446;9.988;2023-04-24T10:35:27;128.47;;;121.47;;
16387;SDS011;8303;53.446;9.988;2023-04-24T10:37:58;106.13;;;100.07;;
16387;SDS011;8303;53.446;9.988;2023-04-24T10:40:30;114.73;;;108.20;;
16387;SDS011;8303;53.446;9.988;2023-04-24T10:43:01;160.57;;;151.60;;
16387;SDS011;8303;53.446;9.988;2023-04-24T10:45:31;158.73;;;150.00;;
16387;SDS011;8303;53.446;9.988;2023-04-24T10:47:58;170.63;;;161.57;;
16387;SDS011;8303;53.446;9.988;2023-04-24T10:50:27;168.07;;;159.20;;
16387;SDS011;8303;53.446;9.988;2023-04-24T10:53:05;224.70;;;212.90;;
16387;SDS011;8303;53.446;9.988;2023-04-24T10:55:40;246.20;;;233.27;;
16387;SDS011;8303;53.446;9.988;2023-04-24T10:58:10;247.23;;;234.07;;
16387;SDS011;8303;53.446;9.988;2023-04-24T11:00:38;214.30;;;202.97;;
16387;SDS011;8303;53.446;9.988;2023-04-24T11:03:05;224.63;;;212.77;;
16387;SDS011;8303;53.446;9.988;2023-04-24T11:05:52;217.57;;;206.35;;
16387;SDS011;8303;53.446;9.988;2023-04-24T11:08:23;273.03;;;258.33;;
16387;SDS011;8303;53.446;9.988;2023-04-24T11:10:55;286.60;;;271.43;;
16387;SDS011;8303;53.446;9.988;2023-04-24T11:13:25;275.80;;;261.47;;
16387;SDS011;8303;53.446;9.988;2023-04-24T11:18:41;239.37;;;227.23;;
16387;SDS011;8303;53.446;9.988;2023-04-24T11:21:11;218.87;;;207.47;;
16387;SDS011;8303;53.446;9.988;2023-04-24T11:23:39;200.90;;;190.40;;
16387;SDS011;8303;53.446;9.988;2023-04-24T11:26:12;217.80;;;206.60;;
16387;SDS011;8303;53.446;9.988;2023-04-24T11:28:45;201.83;;;191.00;;
16387;SDS011;8303;53.446;9.988;2023-04-24T11:34:08;262.97;;;248.83;;
16387;SDS011;8303;53.446;9.988;2023-04-24T11:36:37;235.00;;;222.90;;
16387;SDS011;8303;53.446;9.988;2023-04-24T11:39:04;263.07;;;249.77;;
16387;SDS011;8303;53.446;9.988;2023-04-24T11:41:31;272.63;;;258.40;;
16387;SDS011;8303;53.446;9.988;2023-04-24T11:44:00;266.70;;;252.90;;
16387;SDS011;8303;53.446;9.988;2023-04-24T11:46:28;327.97;;;310.93;;
16387;SDS011;8303;53.446;9.988;2023-04-24T11:48:57;327.47;;;310.57;;
16387;SDS011;8303;53.446;9.988;2023-04-24T11:51:25;299.73;;;284.20;;
16387;SDS011;8303;53.446;9.988;2023-04-24T11:53:53;272.33;;;258.57;;
16387;SDS011;8303;53.446;9.988;2023-04-24T11:56:21;245.67;;;233.03;;
16387;SDS011;8303;53.446;9.988;2023-04-24T11:58:48;241.67;;;229.40;;
16387;SDS011;8303;53.446;9.988;2023-04-24T12:01:16;193.33;;;183.07;;
16387;SDS011;8303;53.446;9.988;2023-04-24T12:03:46;233.87;;;221.73;;
16387;SDS011;8303;53.446;9.988;2023-04-24T12:06:15;173.97;;;165.13;;
16387;SDS011;8303;53.446;9.988;2023-04-24T12:08:41;193.53;;;183.70;;
16387;SDS011;8303;53.446;9.988;2023-04-24T12:11:11;237.13;;;225.07;;
16387;SDS011;8303;53.446;9.988;2023-04-24T12:13:41;225.23;;;213.77;;
16387;SDS011;8303;53.446;9.988;2023-04-24T12:16:08;201.93;;;191.57;;
16387;SDS011;8303;53.446;9.988;2023-04-24T12:18:40;193.13;;;183.30;;
16387;SDS011;8303;53.446;9.988;2023-04-24T12:21:19;275.03;;;260.50;;
16387;SDS011;8303;53.446;9.988;2023-04-24T12:23:47;278.30;;;263.90;;
16387;SDS011;8303;53.446;9.988;2023-04-24T12:26:16;357.60;;;338.73;;
16387;SDS011;8303;53.446;9.988;2023-04-24T12:28:46;291.40;;;276.67;;
16387;SDS011;8303;53.446;9.988;2023-04-24T12:31:14;363.20;;;344.13;;
16387;SDS011;8303;53.446;9.988;2023-04-24T12:33:43;266.73;;;253.53;;
16387;SDS011;8303;53.446;9.988;2023-04-24T12:36:10;287.37;;;272.80;;
16387;SDS011;8303;53.446;9.988;2023-04-24T12:38:38;286.03;;;271.63;;
16387;SDS011;8303;53.446;9.988;2023-04-24T12:41:09;249.70;;;237.27;;
16387;SDS011;8303;53.446;9.988;2023-04-24T12:43:37;306.87;;;291.20;;
16387;SDS011;8303;53.446;9.988;2023-04-24T12:46:04;269.03;;;255.60;;
16387;SDS011;8303;53.446;9.988;2023-04-24T12:48:31;258.57;;;245.67;;
16387;SDS011;8303;53.446;9.988;2023-04-24T12:50:59;245.60;;;233.40;;
16387;SDS011;8303;53.446;9.988;2023-04-24T12:53:27;221.30;;;210.20;;
16387;SDS011;8303;53.446;9.988;2023-04-24T12:55:56;272.57;;;259.00;;
16387;SDS011;8303;53.446;9.988;2023-04-24T12:58:23;227.20;;;216.00;;
16387;SDS011;8303;53.446;9.988;2023-04-24T13:00:50;231.27;;;219.87;;
16387;SDS011;8303;53.446;9.988;2023-04-24T13:03:18;215.80;;;205.07;;
16387;SDS011;8303;53.446;9.988;2023-04-24T13:05:45;211.60;;;201.10;;
16387;SDS011;8303;53.446;9.988;2023-04-24T13:08:13;218.97;;;208.03;;
16387;SDS011;8303;53.446;9.988;2023-04-24T13:10:45;223.47;;;212.33;;
16387;SDS011;8303;53.446;9.988;2023-04-24T13:13:12;248.67;;;236.00;;
16387;SDS011;8303;53.446;9.988;2023-04-24T13:15:39;248.00;;;235.73;;
16387;SDS011;8303;53.446;9.988;2023-04-24T13:18:06;225.37;;;214.33;;
16387;SDS011;8303;53.446;9.988;2023-04-24T13:20:33;222.50;;;211.57;;
16387;SDS011;8303;53.446;9.988;2023-04-24T13:23:00;224.57;;;213.50;;
16387;SDS011;8303;53.446;9.988;2023-04-24T13:25:30;230.37;;;219.00;;
16387;SDS011;8303;53.446;9.988;2023-04-24T13:28:02;215.50;;;204.87;;
16387;SDS011;8303;53.446;9.988;2023-04-24T13:30:29;232.70;;;221.23;;
16387;SDS011;8303;53.446;9.988;2023-04-24T13:32:56;258.40;;;245.53;;
16387;SDS011;8303;53.446;9.988;2023-04-24T13:35:23;261.20;;;248.27;;
16387;SDS011;8303;53.446;9.988;2023-04-24T13:37:50;217.93;;;206.83;;
16387;SDS011;8303;53.446;9.988;2023-04-24T13:40:17;230.17;;;218.40;;
16387;SDS011;8303;53.446;9.988;2023-04-24T13:42:45;213.37;;;202.83;;
16387;SDS011;8303;53.446;9.988;2023-04-24T13:45:12;232.23;;;220.73;;
16387;SDS011;8303;53.446;9.988;2023-04-24T13:47:39;231.60;;;220.07;;
16387;SDS011;8303;53.446;9.988;2023-04-24T13:50:07;197.40;;;187.40;;
16387;SDS011;8303;53.446;9.988;2023-04-24T13:52:34;227.03;;;215.83;;
16387;SDS011;8303;53.446;9.988;2023-04-24T13:55:01;244.63;;;232.27;;
16387;SDS011;8303;53.446;9.988;2023-04-24T13:57:28;218.83;;;207.97;;
16387;SDS011;8303;53.446;9.988;2023-04-24T13:59:57;176.23;;;167.30;;
16387;SDS011;8303;53.446;9.988;2023-04-24T14:02:26;240.47;;;228.27;;
16387;SDS011;8303;53.446;9.988;2023-04-24T14:04:53;227.13;;;215.87;;
16387;SDS011;8303;53.446;9.988;2023-04-24T14:07:20;247.63;;;235.40;;
16387;SDS011;8303;53.446;9.988;2023-04-24T14:09:47;246.90;;;234.40;;
16387;SDS011;8303;53.446;9.988;2023-04-24T14:12:14;247.47;;;235.37;;
16387;SDS011;8303;53.446;9.988;2023-04-24T14:14:44;290.73;;;276.03;;
16387;SDS011;8303;53.446;9.988;2023-04-24T14:17:13;304.70;;;289.53;;
16387;SDS011;8303;53.446;9.988;2023-04-24T14:19:40;338.20;;;320.53;;
16387;SDS011;8303;53.446;9.988;2023-04-24T14:22:07;332.10;;;315.23;;
16387;SDS011;8303;53.446;9.988;2023-04-24T14:24:34;267.83;;;254.63;;
16387;SDS011;8303;53.446;9.988;2023-04-24T14:27:01;307.83;;;292.40;;
16387;SDS011;8303;53.446;9.988;2023-04-24T14:29:28;283.50;;;269.00;;
16387;SDS011;8303;53.446;9.988;2023-04-24T14:31:55;244.77;;;232.67;;
16387;SDS011;8303;53.446;9.988;2023-04-24T14:34:23;260.10;;;247.20;;
16387;SDS011;8303;53.446;9.988;2023-04-24T14:36:51;243.67;;;231.70;;
16387;SDS011;8303;53.446;9.988;2023-04-24T14:39:19;277.13;;;263.37;;
16387;SDS011;8303;53.446;9.988;2023-04-24T14:41:46;238.93;;;227.23;;
16387;SDS011;8303;53.446;9.988;2023-04-24T14:44:13;158.37;;;150.40;;
16387;SDS011;8303;53.446;9.988;2023-04-24T14:46:40;181.17;;;171.97;;
16387;SDS011;8303;53.446;9.988;2023-04-24T14:49:08;144.53;;;137.27;;
16387;SDS011;8303;53.446;9.988;2023-04-24T14:51:38;120.90;;;114.67;;
16387;SDS011;8303;53.446;9.988;2023-04-24T14:54:05;161.47;;;153.47;;
16387;SDS011;8303;53.446;9.988;2023-04-24T14:56:32;170.20;;;161.60;;
16387;SDS011;8303;53.446;9.988;2023-04-24T14:59:00;216.93;;;206.07;;
16387;SDS011;8303;53.446;9.988;2023-04-24T15:01:27;160.50;;;152.33;;
16387;SDS011;8303;53.446;9.988;2023-04-24T15:03:54;142.70;;;135.43;;
16387;SDS011;8303;53.446;9.988;2023-04-24T15:06:20;185.50;;;175.93;;
16387;SDS011;8303;53.446;9.988;2023-04-24T15:08:49;177.30;;;167.10;;
16387;SDS011;8303;53.446;9.988;2023-04-24T15:11:16;109.87;;;104.07;;
16387;SDS011;8303;53.446;9.988;2023-04-24T15:13:43;86.60;;;81.83;;
16387;SDS011;8303;53.446;9.988;2023-04-24T15:16:10;86.33;;;81.57;;
16387;SDS011;8303;53.446;9.988;2023-04-24T15:18:37;78.73;;;74.43;;
16387;SDS011;8303;53.446;9.988;2023-04-24T15:21:04;96.03;;;90.93;;
16387;SDS011;8303;53.446;9.988;2023-04-24T15:23:31;79.80;;;75.40;;
16387;SDS011;8303;53.446;9.988;2023-04-24T15:26:00;141.37;;;133.23;;
16387;SDS011;8303;53.446;9.988;2023-04-24T15:28:27;75.50;;;71.23;;
16387;SDS011;8303;53.446;9.988;2023-04-24T15:30:53;92.60;;;87.50;;
16387;SDS011;8303;53.446;9.988;2023-04-24T15:33:20;155.53;;;147.23;;
16387;SDS011;8303;53.446;9.988;2023-04-24T15:35:47;81.03;;;76.60;;
16387;SDS011;8303;53.446;9.988;2023-04-24T15:38:15;69.53;;;65.73;;
16387;SDS011;8303;53.446;9.988;2023-04-24T15:40:42;59.90;;;56.63;;
16387;SDS011;8303;53.446;9.988;2023-04-24T15:43:11;161.50;;;152.10;;
16387;SDS011;8303;53.446;9.988;2023-04-24T15:45:38;101.03;;;95.27;;
16387;SDS011;8303;53.446;9.988;2023-04-24T15:48:04;167.33;;;158.53;;
16387;SDS011;8303;53.446;9.988;2023-04-24T15:50:31;89.83;;;84.83;;
16387;SDS011;8303;53.446;9.988;2023-04-24T15:52:58;157.57;;;147.87;;
16387;SDS011;8303;53.446;9.988;2023-04-24T15:55:25;57.87;;;54.13;;
16387;SDS011;8303;53.446;9.988;2023-04-24T15:57:54;83.13;;;78.30;;
16387;SDS011;8303;53.446;9.988;2023-04-24T16:00:23;49.57;;;46.57;;
16387;SDS011;8303;53.446;9.988;2023-04-24T16:02:51;65.17;;;61.00;;
16387;SDS011;8303;53.446;9.988;2023-04-24T16:05:17;82.00;;;76.93;;
16387;SDS011;8303;53.446;9.988;2023-04-24T16:07:46;50.77;;;47.23;;
16387;SDS011;8303;53.446;9.988;2023-04-24T16:10:13;291.93;;;272.70;;
16387;SDS011;8303;53.446;9.988;2023-04-24T16:12:40;76.87;;;72.10;;
16387;SDS011;8303;53.446;9.988;2023-04-24T16:15:07;52.47;;;49.20;;
16387;SDS011;8303;53.446;9.988;2023-04-24T16:17:36;49.07;;;45.87;;
16387;SDS011;8303;53.446;9.988;2023-04-24T16:20:03;72.77;;;68.40;;
16387;SDS011;8303;53.446;9.988;2023-04-24T16:22:31;155.83;;;146.33;;
16387;SDS011;8303;53.446;9.988;2023-04-24T16:24:58;38.43;;;35.73;;
16387;SDS011;8303;53.446;9.988;2023-04-24T16:27:25;81.33;;;76.60;;
16387;SDS011;8303;53.446;9.988;2023-04-24T16:29:52;46.60;;;43.60;;
16387;SDS011;8303;53.446;9.988;2023-04-24T16:32:19;64.83;;;61.07;;
16387;SDS011;8303;53.446;9.988;2023-04-24T16:34:47;77.43;;;73.00;;
16387;SDS011;8303;53.446;9.988;2023-04-24T16:37:14;52.43;;;49.20;;
16387;SDS011;8303;53.446;9.988;2023-04-24T16:39:41;78.37;;;74.10;;
16387;SDS011;8303;53.446;9.988;2023-04-24T16:42:09;48.13;;;45.23;;
16387;SDS011;8303;53.446;9.988;2023-04-24T16:44:37;44.43;;;41.83;;
16387;SDS011;8303;53.446;9.988;2023-04-24T16:47:04;92.60;;;87.23;;
16387;SDS011;8303;53.446;9.988;2023-04-24T16:49:31;42.90;;;40.43;;
16387;SDS011;8303;53.446;9.988;2023-04-24T16:51:59;85.20;;;80.53;;
16387;SDS011;8303;53.446;9.988;2023-04-24T16:54:27;32.40;;;30.50;;
16387;SDS011;8303;53.446;9.988;2023-04-24T16:56:54;51.27;;;48.43;;
16387;SDS011;8303;53.446;9.988;2023-04-24T16:59:21;51.57;;;48.63;;
16387;SDS011;8303;53.446;9.988;2023-04-24T17:01:48;64.53;;;60.60;;
16387;SDS011;8303;53.446;9.988;2023-04-24T17:04:15;39.93;;;37.57;;
16387;SDS011;8303;53.446;9.988;2023-04-24T17:06:42;35.47;;;33.23;;
16387;SDS011;8303;53.446;9.988;2023-04-24T17:09:10;37.60;;;35.20;;
16387;SDS011;8303;53.446;9.988;2023-04-24T17:11:39;32.13;;;30.13;;
16387;SDS011;8303;53.446;9.988;2023-04-24T17:14:07;38.73;;;36.37;;
16387;SDS011;8303;53.446;9.988;2023-04-24T17:16:33;36.70;;;34.30;;
16387;SDS011;8303;53.446;9.988;2023-04-24T17:19:02;33.27;;;31.13;;
16387;SDS011;8303;53.446;9.988;2023-04-24T17:21:30;35.07;;;32.47;;
16387;SDS011;8303;53.446;9.988;2023-04-24T17:23:57;47.43;;;44.43;;
16387;SDS011;8303;53.446;9.988;2023-04-24T17:26:28;49.20;;;46.10;;
16387;SDS011;8303;53.446;9.988;2023-04-24T17:28:56;56.07;;;52.77;;
16387;SDS011;8303;53.446;9.988;2023-04-24T17:31:23;38.43;;;35.73;;
16387;SDS011;8303;53.446;9.988;2023-04-24T17:33:50;32.87;;;30.67;;
16387;SDS011;8303;53.446;9.988;2023-04-24T17:36:17;41.03;;;38.17;;
16387;SDS011;8303;53.446;9.988;2023-04-24T17:38:44;46.80;;;43.23;;
16387;SDS011;8303;53.446;9.988;2023-04-24T17:41:10;31.73;;;29.40;;
16387;SDS011;8303;53.446;9.988;2023-04-24T17:43:42;34.60;;;32.10;;
16387;SDS011;8303;53.446;9.988;2023-04-24T17:46:09;36.60;;;34.17;;
16387;SDS011;8303;53.446;9.988;2023-04-24T17:48:37;39.83;;;36.33;;
16387;SDS011;8303;53.446;9.988;2023-04-24T17:51:05;34.03;;;31.13;;
16387;SDS011;8303;53.446;9.988;2023-04-24T17:53:32;37.70;;;35.03;;
16387;SDS011;8303;53.446;9.988;2023-04-24T17:55:59;35.70;;;33.33;;
16387;SDS011;8303;53.446;9.988;2023-04-24T17:58:28;40.87;;;38.23;;
16387;SDS011;8303;53.446;9.988;2023-04-24T18:00:56;34.20;;;31.90;;
16387;SDS011;8303;53.446;9.988;2023-04-24T18:03:23;29.97;;;27.97;;
16387;SDS011;8303;53.446;9.988;2023-04-24T18:05:50;34.47;;;32.10;;
16387;SDS011;8303;53.446;9.988;2023-04-24T18:08:18;33.57;;;30.97;;
16387;SDS011;8303;53.446;9.988;2023-04-24T18:10:45;32.03;;;29.77;;
16387;SDS011;8303;53.446;9.988;2023-04-24T18:13:12;30.37;;;28.37;;
16387;SDS011;8303;53.446;9.988;2023-04-24T18:15:39;34.97;;;31.90;;
16387;SDS011;8303;53.446;9.988;2023-04-24T18:18:08;32.80;;;29.97;;
16387;SDS011;8303;53.446;9.988;2023-04-24T18:20:35;56.37;;;52.40;;
16387;SDS011;8303;53.446;9.988;2023-04-24T18:23:03;58.17;;;54.40;;
16387;SDS011;8303;53.446;9.988;2023-04-24T18:25:30;30.70;;;28.57;;
16387;SDS011;8303;53.446;9.988;2023-04-24T18:27:57;49.07;;;45.90;;
16387;SDS011;8303;53.446;9.988;2023-04-24T18:30:24;35.67;;;33.33;;
16387;SDS011;8303;53.446;9.988;2023-04-24T18:32:52;29.43;;;27.43;;
16387;SDS011;8303;53.446;9.988;2023-04-24T18:35:20;40.23;;;37.87;;
16387;SDS011;8303;53.446;9.988;2023-04-24T18:37:48;36.67;;;34.30;;
16387;SDS011;8303;53.446;9.988;2023-04-24T18:40:15;32.43;;;30.13;;
16387;SDS011;8303;53.446;9.988;2023-04-24T18:42:43;35.30;;;33.10;;
16387;SDS011;8303;53.446;9.988;2023-04-24T18:45:11;30.53;;;28.63;;
16387;SDS011;8303;53.446;9.988;2023-04-24T18:47:39;50.73;;;47.77;;
16387;SDS011;8303;53.446;9.988;2023-04-24T18:50:06;47.70;;;44.73;;
16387;SDS011;8303;53.446;9.988;2023-04-24T18:52:35;36.07;;;33.77;;
16387;SDS011;8303;53.446;9.988;2023-04-24T18:55:02;41.37;;;38.53;;
16387;SDS011;8303;53.446;9.988;2023-04-24T18:57:30;38.80;;;36.50;;
16387;SDS011;8303;53.446;9.988;2023-04-24T18:59:58;33.10;;;30.90;;
16387;SDS011;8303;53.446;9.988;2023-04-24T19:02:24;41.53;;;38.73;;
16387;SDS011;8303;53.446;9.988;2023-04-24T19:04:51;32.87;;;30.70;;
16387;SDS011;8303;53.446;9.988;2023-04-24T19:07:18;30.20;;;28.10;;
16387;SDS011;8303;53.446;9.988;2023-04-24T19:09:47;39.27;;;36.93;;
16387;SDS011;8303;53.446;9.988;2023-04-24T19:12:13;54.47;;;50.97;;
16387;SDS011;8303;53.446;9.988;2023-04-24T19:14:40;70.93;;;66.87;;
16387;SDS011;8303;53.446;9.988;2023-04-24T19:17:07;58.37;;;54.60;;